createdAt,value
2022-11-30T00:01:23.585Z,100.00
2022-11-30T00:03:54.673Z,100.00
2022-11-30T00:06:23.548Z,100.00
2022-11-30T00:08:55.347Z,100.00
2022-11-30T00:11:23.870Z,100.00
2022-11-30T00:13:50.593Z,100.00
2022-11-30T00:16:17.085Z,100.00
2022-11-30T00:18:43.605Z,100.00
2022-11-30T00:21:12.984Z,100.00
2022-11-30T00:23:42.882Z,100.00
2022-11-30T00:26:12.083Z,100.00
2022-11-30T00:28:39.773Z,100.00
2022-11-30T00:31:10.182Z,100.00
2022-11-30T00:33:38.217Z,100.00
2022-11-30T00:36:08.100Z,100.00
2022-11-30T00:38:34.976Z,100.00
2022-11-30T00:41:02.028Z,100.00
2022-11-30T00:43:29.118Z,100.00
2022-11-30T00:45:55.820Z,100.00
2022-11-30T00:48:22.292Z,100.00
2022-11-30T00:50:49.979Z,100.00
2022-11-30T00:53:17.055Z,100.00
2022-11-30T00:55:44.537Z,100.00
2022-11-30T00:58:11.943Z,100.00
2022-11-30T01:00:38.405Z,100.00
2022-11-30T01:03:05.678Z,100.00
2022-11-30T01:05:35.738Z,100.00
2022-11-30T01:08:03.878Z,100.00
2022-11-30T01:10:30.623Z,100.00
2022-11-30T01:12:57.221Z,100.00
2022-11-30T01:15:23.752Z,100.00
2022-11-30T01:17:50.302Z,100.00
2022-11-30T01:20:16.754Z,100.00
2022-11-30T01:22:43.238Z,100.00
2022-11-30T01:25:09.823Z,100.00
2022-11-30T01:27:36.301Z,100.00
2022-11-30T01:30:03.041Z,100.00
2022-11-30T01:32:29.462Z,100.00
2022-11-30T01:34:55.881Z,100.00
2022-11-30T01:37:23.103Z,100.00
2022-11-30T01:39:49.558Z,100.00
2022-11-30T01:42:18.699Z,100.00
2022-11-30T01:44:56.999Z,100.00
2022-11-30T01:47:29.611Z,100.00
2022-11-30T01:50:13.454Z,100.00
2022-11-30T01:52:43.509Z,100.00
2022-11-30T01:55:12.644Z,100.00
2022-11-30T01:57:43.877Z,100.00
2022-11-30T02:00:14.343Z,100.00
2022-11-30T02:02:55.054Z,100.00
2022-11-30T02:05:24.505Z,100.00
2022-11-30T02:07:51.444Z,100.00
2022-11-30T02:10:23.679Z,100.00
2022-11-30T02:13:21.222Z,100.00
2022-11-30T02:16:02.963Z,100.00
2022-11-30T02:18:39.658Z,100.00
2022-11-30T02:21:30.069Z,100.00
2022-11-30T02:24:17.873Z,100.00
2022-11-30T02:27:13.881Z,100.00
2022-11-30T02:29:58.708Z,100.00
2022-11-30T02:33:04.584Z,100.00
2022-11-30T02:35:34.784Z,100.00
2022-11-30T02:38:03.362Z,100.00
2022-11-30T02:40:30.331Z,100.00
2022-11-30T02:43:00.103Z,100.00
2022-11-30T02:45:31.721Z,100.00
2022-11-30T02:48:07.843Z,100.00
2022-11-30T02:50:41.058Z,100.00
2022-11-30T02:53:09.598Z,100.00
2022-11-30T02:55:36.104Z,100.00
2022-11-30T02:58:02.604Z,100.00
2022-11-30T03:00:29.068Z,100.00
2022-11-30T03:02:55.560Z,100.00
2022-11-30T03:05:22.150Z,100.00
2022-11-30T03:07:48.621Z,100.00
2022-11-30T03:10:15.390Z,100.00
2022-11-30T03:12:41.786Z,100.00
2022-11-30T03:15:08.874Z,100.00
2022-11-30T03:17:35.394Z,100.00
2022-11-30T03:20:02.021Z,100.00
2022-11-30T03:22:28.434Z,100.00
2022-11-30T03:24:55.058Z,100.00
2022-11-30T03:27:21.559Z,100.00
2022-11-30T03:29:48.046Z,100.00
2022-11-30T03:32:14.497Z,100.00
2022-11-30T03:34:41.198Z,100.00
2022-11-30T03:37:07.698Z,100.00
2022-11-30T03:39:34.454Z,100.00
2022-11-30T03:42:00.893Z,100.00
2022-11-30T03:44:27.432Z,100.00
2022-11-30T03:46:53.896Z,100.00
2022-11-30T03:49:20.396Z,100.00
2022-11-30T03:51:46.936Z,100.00
2022-11-30T03:54:13.622Z,100.00
2022-11-30T03:56:40.201Z,100.00
2022-11-30T03:59:06.712Z,100.00
2022-11-30T04:01:33.476Z,100.00
2022-11-30T04:03:59.918Z,100.00
2022-11-30T04:06:26.435Z,100.00
2022-11-30T04:08:52.952Z,100.00
2022-11-30T04:11:19.511Z,100.00
2022-11-30T04:13:45.964Z,100.00
2022-11-30T04:16:12.444Z,100.00
2022-11-30T04:18:39.444Z,100.00
2022-11-30T04:21:07.284Z,100.00
2022-11-30T04:23:38.841Z,100.00
2022-11-30T04:26:07.934Z,100.00
2022-11-30T04:28:35.222Z,100.00
2022-11-30T04:31:02.828Z,100.00
2022-11-30T04:33:29.932Z,100.00
2022-11-30T04:35:59.592Z,100.00
2022-11-30T04:38:26.362Z,100.00
2022-11-30T04:40:53.585Z,100.00
2022-11-30T04:43:20.833Z,100.00
2022-11-30T04:45:47.785Z,100.00
2022-11-30T04:48:15.949Z,100.00
2022-11-30T04:50:42.496Z,100.00
2022-11-30T04:53:09.234Z,100.00
2022-11-30T04:55:37.849Z,100.00
2022-11-30T04:58:05.548Z,100.00
2022-11-30T05:00:32.304Z,100.00
2022-11-30T05:02:58.766Z,100.00
2022-11-30T05:05:25.243Z,100.00
2022-11-30T05:07:56.993Z,100.00
2022-11-30T05:10:24.397Z,100.00
2022-11-30T05:12:51.316Z,100.00
2022-11-30T05:15:18.186Z,100.00
2022-11-30T05:17:44.671Z,100.00
2022-11-30T05:20:11.454Z,100.00
2022-11-30T05:22:37.917Z,100.00
2022-11-30T05:25:04.779Z,100.00
2022-11-30T05:27:31.216Z,100.00
2022-11-30T05:29:57.669Z,100.00
2022-11-30T05:32:24.171Z,100.00
2022-11-30T05:34:51.964Z,100.00
2022-11-30T05:37:19.258Z,100.00
2022-11-30T05:39:45.666Z,100.00
2022-11-30T05:42:12.149Z,100.00
2022-11-30T05:44:38.600Z,100.00
2022-11-30T05:47:05.209Z,100.00
2022-11-30T05:49:31.722Z,100.00
2022-11-30T05:51:58.222Z,100.00
2022-11-30T05:54:24.694Z,100.00
2022-11-30T05:56:54.717Z,100.00
2022-11-30T05:59:22.021Z,100.00
2022-11-30T06:01:48.776Z,100.00
2022-11-30T06:04:15.359Z,100.00
2022-11-30T06:06:41.754Z,100.00
2022-11-30T06:09:08.296Z,100.00
2022-11-30T06:11:34.808Z,100.00
2022-11-30T06:14:01.194Z,100.00
2022-11-30T06:16:27.720Z,100.00
2022-11-30T06:18:54.209Z,100.00
2022-11-30T06:21:24.437Z,100.00
2022-11-30T06:23:52.155Z,100.00
2022-11-30T06:26:18.579Z,100.00
2022-11-30T06:28:48.141Z,100.00
2022-11-30T06:31:15.217Z,100.00
2022-11-30T06:33:41.745Z,100.00
2022-11-30T06:36:08.741Z,100.00
2022-11-30T06:38:35.327Z,100.00
2022-11-30T06:41:06.360Z,100.00
2022-11-30T06:43:34.668Z,100.00
2022-11-30T06:46:01.930Z,100.00
2022-11-30T06:48:28.511Z,100.00
2022-11-30T06:50:55.525Z,100.00
2022-11-30T06:53:21.943Z,100.00
2022-11-30T06:55:48.345Z,100.00
2022-11-30T06:58:14.784Z,100.00
2022-11-30T07:00:41.888Z,100.00
2022-11-30T07:03:08.562Z,100.00
2022-11-30T07:05:41.216Z,100.00
2022-11-30T07:08:07.790Z,100.00
2022-11-30T07:10:34.462Z,100.00
2022-11-30T07:13:00.951Z,100.00
2022-11-30T07:15:27.354Z,100.00
2022-11-30T07:17:53.746Z,100.00
2022-11-30T07:20:20.238Z,100.00
2022-11-30T07:22:46.736Z,100.00
2022-11-30T07:25:31.573Z,100.00
2022-11-30T07:27:58.008Z,100.00
2022-11-30T07:30:24.515Z,100.00
2022-11-30T07:32:51.030Z,100.00
2022-11-30T07:35:17.471Z,100.00
2022-11-30T07:37:43.859Z,100.00
2022-11-30T07:40:10.646Z,100.00
2022-11-30T07:42:37.102Z,100.00
2022-11-30T07:45:03.831Z,100.00
2022-11-30T07:47:30.247Z,100.00
2022-11-30T07:49:57.202Z,100.00
2022-11-30T07:52:23.838Z,100.00
2022-11-30T07:54:50.752Z,100.00
2022-11-30T07:57:17.365Z,100.00
2022-11-30T07:59:43.867Z,100.00
2022-11-30T08:02:10.914Z,100.00
2022-11-30T08:04:37.450Z,100.00
2022-11-30T08:07:03.893Z,100.00
2022-11-30T08:09:30.440Z,100.00
2022-11-30T08:11:56.821Z,100.00
2022-11-30T08:14:23.267Z,100.00
2022-11-30T08:16:49.792Z,100.00
2022-11-30T08:19:16.348Z,100.00
2022-11-30T08:21:42.760Z,100.00
2022-11-30T08:24:12.067Z,100.00
2022-11-30T08:26:38.596Z,100.00
2022-11-30T08:29:05.094Z,100.00
2022-11-30T08:31:35.353Z,100.00
2022-11-30T08:34:07.829Z,100.00
2022-11-30T08:36:35.414Z,100.00
2022-11-30T08:39:04.966Z,100.00
2022-11-30T08:41:32.850Z,100.00
2022-11-30T08:43:59.542Z,100.00
2022-11-30T08:49:22.063Z,100.00
2022-11-30T08:54:39.033Z,100.00
2022-11-30T08:57:05.498Z,100.00
2022-11-30T08:59:32.113Z,100.00
2022-11-30T09:01:58.580Z,100.00
2022-11-30T09:04:25.196Z,100.00
2022-11-30T09:06:51.682Z,100.00
2022-11-30T09:09:18.137Z,100.00
2022-11-30T09:11:44.668Z,100.00
2022-11-30T09:14:11.270Z,100.00
2022-11-30T09:16:37.746Z,100.00
2022-11-30T09:19:04.212Z,100.00
2022-11-30T09:21:30.795Z,100.00
2022-11-30T09:23:57.286Z,100.00
2022-11-30T09:26:25.372Z,100.00
2022-11-30T09:28:53.404Z,100.00
2022-11-30T09:31:25.343Z,100.00
2022-11-30T09:33:52.798Z,100.00
2022-11-30T09:36:21.790Z,100.00
2022-11-30T09:38:48.594Z,100.00
2022-11-30T09:41:28.308Z,100.00
2022-11-30T09:44:20.184Z,100.00
2022-11-30T09:46:56.630Z,100.00
2022-11-30T09:49:29.671Z,100.00
2022-11-30T09:51:59.559Z,100.00
2022-11-30T09:54:44.131Z,100.00
2022-11-30T09:57:33.858Z,100.00
2022-11-30T10:00:05.104Z,100.00
2022-11-30T10:02:34.113Z,100.00
2022-11-30T10:05:01.646Z,100.00
2022-11-30T10:07:55.740Z,100.00
2022-11-30T10:10:36.613Z,100.00
2022-11-30T10:13:23.928Z,100.00
2022-11-30T10:15:56.097Z,100.00
2022-11-30T10:18:58.661Z,100.00
2022-11-30T10:21:45.733Z,100.00
2022-11-30T10:24:45.006Z,100.00
2022-11-30T10:27:18.785Z,100.00
2022-11-30T10:29:45.352Z,99.95
2022-11-30T10:32:24.208Z,97.77
2022-11-30T10:35:15.472Z,98.08
2022-11-30T10:37:42.536Z,96.15
2022-11-30T10:40:32.179Z,93.85
2022-11-30T10:43:28.602Z,94.21
2022-11-30T10:45:55.609Z,93.15
2022-11-30T10:48:25.918Z,88.87
2022-11-30T10:50:53.309Z,89.54
2022-11-30T10:53:20.121Z,89.57
2022-11-30T10:55:58.742Z,89.87
2022-11-30T10:58:33.055Z,89.00
2022-11-30T11:01:11.882Z,88.62
2022-11-30T11:03:38.561Z,92.54
2022-11-30T11:06:25.801Z,89.95
2022-11-30T11:08:52.477Z,91.61
2022-11-30T11:11:38.965Z,92.50
2022-11-30T11:14:12.817Z,93.09
2022-11-30T11:17:04.052Z,93.05
2022-11-30T11:19:41.927Z,94.26
2022-11-30T11:22:20.816Z,91.88
2022-11-30T11:24:49.434Z,87.88
2022-11-30T11:27:30.901Z,87.27
2022-11-30T11:30:03.357Z,86.83
2022-11-30T11:32:31.004Z,88.63
2022-11-30T11:34:58.244Z,86.64
2022-11-30T11:37:31.096Z,85.80
2022-11-30T11:40:03.494Z,84.53
2022-11-30T11:42:48.329Z,82.87
2022-11-30T11:45:26.117Z,82.12
2022-11-30T11:48:02.935Z,83.33
2022-11-30T11:51:05.507Z,81.77
2022-11-30T11:54:11.978Z,81.42
2022-11-30T11:56:38.532Z,82.10
2022-11-30T11:59:15.698Z,81.44
2022-11-30T12:01:50.215Z,79.20
2022-11-30T12:04:31.927Z,80.73
2022-11-30T12:07:02.435Z,79.74
2022-11-30T12:09:34.836Z,78.75
2022-11-30T12:12:01.363Z,76.77
2022-11-30T12:14:30.331Z,76.95
2022-11-30T12:17:05.350Z,77.74
2022-11-30T12:19:42.846Z,76.09
2022-11-30T12:22:18.087Z,74.90
2022-11-30T12:24:51.946Z,73.82
2022-11-30T12:27:43.643Z,71.35
2022-11-30T12:30:23.485Z,70.46
2022-11-30T12:33:03.347Z,70.68
2022-11-30T12:35:56.666Z,67.46
2022-11-30T12:38:48.288Z,66.59
2022-11-30T12:41:47.310Z,69.38
2022-11-30T12:44:28.456Z,67.67
2022-11-30T12:47:38.534Z,68.64
2022-11-30T12:50:38.966Z,71.28
2022-11-30T12:53:28.543Z,72.78
2022-11-30T12:56:09.665Z,72.86
2022-11-30T12:58:56.541Z,71.90
2022-11-30T13:01:51.838Z,71.95
2022-11-30T13:04:28.466Z,71.66
2022-11-30T13:07:03.338Z,72.15
2022-11-30T13:09:47.728Z,72.29
2022-11-30T13:12:21.850Z,71.75
2022-11-30T13:14:49.774Z,72.51
2022-11-30T13:17:18.804Z,72.28
2022-11-30T13:20:17.483Z,73.02
2022-11-30T13:23:00.740Z,73.60
2022-11-30T13:28:41.083Z,74.37
2022-11-30T13:31:14.875Z,73.72
2022-11-30T13:33:48.514Z,74.40
2022-11-30T13:36:24.756Z,73.15
2022-11-30T13:39:16.743Z,74.09
2022-11-30T13:41:46.232Z,74.69
2022-11-30T13:44:32.292Z,75.40
2022-11-30T13:47:01.549Z,76.90
2022-11-30T13:49:38.283Z,75.94
2022-11-30T13:52:23.092Z,76.88
2022-11-30T13:54:54.608Z,77.19
2022-11-30T13:57:30.103Z,76.96
2022-11-30T13:59:58.755Z,75.70
2022-11-30T14:02:36.260Z,74.79
2022-11-30T14:05:21.918Z,75.99
2022-11-30T14:08:00.300Z,76.26
2022-11-30T14:10:39.150Z,76.39
2022-11-30T14:13:11.299Z,81.98
2022-11-30T14:15:41.678Z,76.83
2022-11-30T14:18:08.049Z,75.39
2022-11-30T14:21:11.595Z,76.03
2022-11-30T14:24:13.224Z,75.29
2022-11-30T14:26:44.729Z,76.60
2022-11-30T14:29:18.742Z,77.74
2022-11-30T14:31:48.226Z,77.17
2022-11-30T14:34:19.734Z,76.75
2022-11-30T14:36:55.165Z,76.74
2022-11-30T14:39:31.719Z,78.29
2022-11-30T14:41:58.413Z,77.66
2022-11-30T14:44:24.919Z,76.82
2022-11-30T14:46:51.862Z,77.68
2022-11-30T14:49:23.540Z,77.29
2022-11-30T14:51:58.870Z,77.37
2022-11-30T14:54:44.052Z,76.63
2022-11-30T14:57:32.167Z,77.75
2022-11-30T14:59:58.786Z,77.61
2022-11-30T15:02:31.008Z,79.02
2022-11-30T15:04:59.009Z,77.92
2022-11-30T15:07:27.570Z,78.38
2022-11-30T15:10:03.563Z,78.26
2022-11-30T15:12:30.337Z,78.58
2022-11-30T15:15:12.333Z,79.77
2022-11-30T15:17:51.406Z,81.47
2022-11-30T15:20:38.274Z,78.95
2022-11-30T15:23:05.099Z,78.69
2022-11-30T15:25:56.428Z,78.78
2022-11-30T15:28:37.798Z,78.63
2022-11-30T15:31:09.522Z,79.94
2022-11-30T15:33:47.339Z,78.25
2022-11-30T15:36:28.255Z,79.46
2022-11-30T15:39:00.878Z,77.77
2022-11-30T15:41:27.415Z,78.63
2022-11-30T15:43:56.534Z,78.48
2022-11-30T15:46:35.237Z,81.43
2022-11-30T15:49:29.277Z,79.36
2022-11-30T15:52:00.080Z,80.15
2022-11-30T15:55:04.056Z,81.99
2022-11-30T15:58:00.464Z,80.70
2022-11-30T16:00:27.822Z,81.63
2022-11-30T16:03:11.032Z,81.37
2022-11-30T16:05:39.500Z,82.85
2022-11-30T16:08:14.619Z,83.46
2022-11-30T16:10:43.683Z,84.13
2022-11-30T16:13:14.616Z,83.74
2022-11-30T16:15:48.372Z,83.98
2022-11-30T16:18:18.930Z,85.46
2022-11-30T16:20:48.152Z,85.35
2022-11-30T16:23:15.571Z,85.23
2022-11-30T16:25:43.451Z,86.76
2022-11-30T16:28:11.095Z,86.89
2022-11-30T16:30:38.516Z,86.81
2022-11-30T16:33:05.430Z,86.34
2022-11-30T16:35:42.198Z,85.98
2022-11-30T16:38:08.703Z,86.81
2022-11-30T16:40:38.807Z,87.02
2022-11-30T16:43:05.787Z,86.46
2022-11-30T16:45:36.985Z,86.35
2022-11-30T16:48:04.346Z,86.13
2022-11-30T16:50:34.948Z,87.90
2022-11-30T16:53:02.561Z,88.01
2022-11-30T16:55:31.914Z,86.66
2022-11-30T16:57:58.678Z,86.26
2022-11-30T17:00:25.138Z,86.33
2022-11-30T17:03:09.777Z,85.17
2022-11-30T17:05:37.050Z,85.10
2022-11-30T17:08:03.874Z,84.01
2022-11-30T17:10:30.436Z,84.50
2022-11-30T17:12:56.915Z,84.39
2022-11-30T17:15:24.536Z,84.12
2022-11-30T17:17:51.252Z,83.83
2022-11-30T17:20:18.423Z,84.08
2022-11-30T17:22:45.379Z,83.40
2022-11-30T17:25:19.631Z,82.23
2022-11-30T17:27:47.295Z,81.73
2022-11-30T17:30:16.565Z,82.20
2022-11-30T17:32:43.485Z,82.49
2022-11-30T17:35:10.202Z,82.47
2022-11-30T17:37:36.740Z,80.82
2022-11-30T17:40:04.836Z,81.09
2022-11-30T17:42:31.304Z,81.35
2022-11-30T17:44:57.850Z,80.62
2022-11-30T17:47:24.302Z,81.40
2022-11-30T17:49:51.073Z,81.75
2022-11-30T17:52:17.534Z,81.05
2022-11-30T17:54:44.030Z,80.95
2022-11-30T17:57:10.497Z,81.69
2022-11-30T17:59:36.939Z,82.29
2022-11-30T18:02:03.430Z,81.30
2022-11-30T18:04:29.850Z,80.35
2022-11-30T18:06:56.349Z,79.62
2022-11-30T18:09:24.349Z,79.78
2022-11-30T18:11:50.815Z,79.48
2022-11-30T18:14:17.325Z,78.81
2022-11-30T18:16:43.906Z,79.59
2022-11-30T18:19:14.831Z,79.33
2022-11-30T18:21:44.172Z,78.87
2022-11-30T18:24:12.359Z,79.12
2022-11-30T18:26:39.689Z,79.96
2022-11-30T18:29:06.960Z,80.49
2022-11-30T18:31:33.673Z,79.86
2022-11-30T18:34:02.963Z,78.99
2022-11-30T18:36:29.738Z,79.64
2022-11-30T18:38:56.472Z,80.17
2022-11-30T18:41:25.914Z,81.18
2022-11-30T18:43:53.595Z,80.27
2022-11-30T18:46:20.353Z,79.79
2022-11-30T18:48:52.840Z,79.74
2022-11-30T18:51:22.020Z,80.83
2022-11-30T18:53:48.458Z,80.36
2022-11-30T18:56:17.730Z,79.94
2022-11-30T18:58:45.702Z,81.41
2022-11-30T19:01:18.203Z,79.56
2022-11-30T19:03:53.584Z,79.87
2022-11-30T19:06:21.079Z,79.05
2022-11-30T19:08:48.288Z,79.21
2022-11-30T19:11:16.546Z,79.36
2022-11-30T19:13:43.800Z,78.71
2022-11-30T19:16:13.620Z,78.15
2022-11-30T19:18:40.946Z,78.85
2022-11-30T19:21:13.191Z,79.89
2022-11-30T19:23:40.227Z,79.56
2022-11-30T19:26:08.547Z,80.60
2022-11-30T19:28:36.584Z,80.48
2022-11-30T19:31:15.028Z,80.81
2022-11-30T19:33:43.394Z,80.59
2022-11-30T19:36:25.682Z,80.34
2022-11-30T19:38:52.443Z,80.12
2022-11-30T19:41:20.353Z,80.14
2022-11-30T19:43:53.969Z,81.32
2022-11-30T19:46:23.852Z,81.60
2022-11-30T19:48:56.051Z,81.74
2022-11-30T19:51:22.483Z,81.00
2022-11-30T19:53:55.621Z,80.20
2022-11-30T19:56:23.395Z,80.75
2022-11-30T19:58:50.584Z,80.78
2022-11-30T20:01:20.046Z,81.23
2022-11-30T20:03:46.622Z,82.49
2022-11-30T20:06:13.335Z,81.67
2022-11-30T20:08:40.314Z,81.78
2022-11-30T20:11:07.829Z,82.75
2022-11-30T20:13:34.332Z,82.33
2022-11-30T20:16:07.219Z,82.41
2022-11-30T20:18:33.828Z,82.11
2022-11-30T20:21:13.754Z,81.75
2022-11-30T20:23:41.603Z,82.27
2022-11-30T20:26:15.318Z,82.77
2022-11-30T20:28:42.793Z,81.89
2022-11-30T20:31:11.607Z,82.78
2022-11-30T20:33:38.641Z,82.37
2022-11-30T20:36:07.296Z,82.53
2022-11-30T20:38:34.083Z,82.54
2022-11-30T20:41:00.978Z,81.58
2022-11-30T20:43:27.521Z,81.84
2022-11-30T20:45:54.016Z,85.19
2022-11-30T20:48:20.479Z,82.42
2022-11-30T20:51:01.099Z,83.08
2022-11-30T20:53:27.752Z,82.46
2022-11-30T20:55:54.166Z,83.09
2022-11-30T20:58:25.054Z,83.05
2022-11-30T21:00:51.525Z,83.36
2022-11-30T21:03:18.027Z,82.43
2022-11-30T21:05:44.749Z,83.11
2022-11-30T21:08:11.266Z,82.68
2022-11-30T21:10:39.756Z,83.25
2022-11-30T21:13:06.365Z,83.00
2022-11-30T21:15:32.820Z,82.70
2022-11-30T21:17:59.234Z,82.79
2022-11-30T21:20:25.955Z,81.88
2022-11-30T21:22:52.438Z,83.03
2022-11-30T21:25:19.048Z,83.18
2022-11-30T21:27:50.914Z,81.97
2022-11-30T21:30:17.488Z,81.65
2022-11-30T21:32:43.974Z,82.32
2022-11-30T21:35:10.427Z,82.41
2022-11-30T21:37:36.869Z,82.37
2022-11-30T21:40:03.828Z,83.00
2022-11-30T21:42:30.240Z,82.84
2022-11-30T21:44:56.715Z,83.16
2022-11-30T21:47:23.131Z,83.56
2022-11-30T21:49:49.564Z,82.65
2022-11-30T21:52:16.058Z,82.94
2022-11-30T21:54:42.535Z,83.32
2022-11-30T21:57:09.107Z,83.25
2022-11-30T21:59:35.524Z,82.95
2022-11-30T22:02:01.909Z,82.47
2022-11-30T22:04:28.468Z,82.92
2022-11-30T22:06:54.979Z,82.66
2022-11-30T22:09:21.380Z,82.82
2022-11-30T22:11:47.882Z,83.42
2022-11-30T22:14:16.887Z,83.33
2022-11-30T22:16:43.813Z,84.89
2022-11-30T22:19:10.479Z,83.44
2022-11-30T22:21:36.998Z,83.70
2022-11-30T22:24:06.502Z,84.11
2022-11-30T22:26:38.915Z,83.96
2022-11-30T22:29:16.054Z,84.81
2022-11-30T22:31:44.610Z,83.77
2022-11-30T22:34:11.733Z,83.00
2022-11-30T22:36:40.392Z,83.80
2022-11-30T22:39:10.666Z,84.75
2022-11-30T22:41:37.507Z,85.33
2022-11-30T22:44:04.220Z,83.85
2022-11-30T22:46:33.055Z,84.17
2022-11-30T22:49:03.671Z,84.12
2022-11-30T22:51:31.805Z,85.32
2022-11-30T22:53:59.229Z,84.62
2022-11-30T22:56:34.078Z,85.23
2022-11-30T22:59:01.231Z,85.35
2022-11-30T23:01:28.886Z,86.33
2022-11-30T23:03:57.278Z,85.50
2022-11-30T23:06:24.688Z,86.23
2022-11-30T23:08:52.145Z,85.52
2022-11-30T23:11:22.934Z,85.50
2022-11-30T23:13:49.667Z,85.37
2022-11-30T23:16:17.009Z,85.31
2022-11-30T23:18:49.558Z,84.57
2022-11-30T23:21:22.212Z,84.93
2022-11-30T23:23:49.447Z,85.72
2022-11-30T23:26:18.348Z,85.40
2022-11-30T23:28:47.468Z,84.45
2022-11-30T23:31:34.114Z,86.01
2022-11-30T23:34:07.579Z,86.20
2022-11-30T23:36:35.265Z,86.65
2022-11-30T23:39:14.755Z,85.99
2022-11-30T23:41:41.274Z,86.12
2022-11-30T23:44:08.646Z,86.72
2022-11-30T23:46:36.167Z,86.29
2022-11-30T23:49:03.061Z,85.76
2022-11-30T23:51:29.527Z,84.55
2022-11-30T23:53:56.082Z,83.92
2022-11-30T23:56:23.957Z,84.70
2022-11-30T23:58:50.975Z,84.78
